Time;durP1;ratioP1;P1;durP2;ratioP2;P2;SDS_P1;SDS_P2;PMS_P1;PMS_P2;Temp;Humidity;BMP_temperature;BMP_pressure;BME280_temperature;BME280_humidity;BME280_pressure;Samples;Min_cycle;Max_cycle;Signal;HPM_P1;HPM_P2
2023/06/16 00:00:36;;;;;;;7.53;5.28;;;;;;;;;;5092183;28;20436;-60
2023/06/16 00:03:03;;;;;;;9.40;5.63;;;;;;;;;;5073792;28;20375;-60
2023/06/16 00:05:29;;;;;;;6.55;5.18;;;;;;;;;;5089100;28;20064;-60
2023/06/16 00:08:00;;;;;;;8.25;5.65;;;;;;;;;;5086763;28;20024;-61
2023/06/16 00:10:27;;;;;;;12.63;5.75;;;;;;;;;;5087122;28;20038;-60
2023/06/16 00:12:54;;;;;;;8.30;5.53;;;;;;;;;;5086910;28;20027;-60
2023/06/16 00:15:21;;;;;;;7.15;5.13;;;;;;;;;;5089330;28;20027;-60
2023/06/16 00:17:49;;;;;;;9.43;5.53;;;;;;;;;;5091925;28;20098;-60
2023/06/16 00:20:21;;;;;;;8.98;5.18;;;;;;;;;;5091638;28;20028;-60
2023/06/16 00:22:48;;;;;;;7.55;4.93;;;;;;;;;;5092149;28;20420;-60
2023/06/16 00:25:19;;;;;;;5.10;3.85;;;;;;;;;;5081712;28;20048;-60
2023/06/16 00:27:45;;;;;;;8.10;5.50;;;;;;;;;;5078354;28;20036;-60
2023/06/16 00:30:13;;;;;;;13.63;6.78;;;;;;;;;;5086967;28;20073;-60
2023/06/16 00:32:40;;;;;;;7.88;5.32;;;;;;;;;;5086947;28;20516;-60
2023/06/16 00:35:07;;;;;;;8.80;5.03;;;;;;;;;;5086773;28;20115;-61
2023/06/16 00:37:33;;;;;;;8.52;4.60;;;;;;;;;;5088654;28;20383;-60
2023/06/16 00:40:00;;;;;;;11.55;5.88;;;;;;;;;;5091570;28;20394;-60
2023/06/16 00:42:27;;;;;;;29.88;6.00;;;;;;;;;;5091829;28;20467;-60
2023/06/16 00:44:54;;;;;;;16.60;5.60;;;;;;;;;;5091645;28;20421;-60
2023/06/16 00:47:21;;;;;;;69.80;13.18;;;;;;;;;;5091759;28;20028;-60
2023/06/16 00:49:48;;;;;;;8.10;5.20;;;;;;;;;;5090355;28;20410;-60
2023/06/16 00:52:15;;;;;;;8.27;4.82;;;;;;;;;;5086468;28;20371;-60
2023/06/16 00:54:42;;;;;;;7.68;4.90;;;;;;;;;;5086313;28;20032;-60
2023/06/16 00:57:09;;;;;;;10.02;5.50;;;;;;;;;;5086525;28;20432;-60
2023/06/16 00:59:37;;;;;;;5.18;3.72;;;;;;;;;;5086666;28;20077;-60
2023/06/16 01:02:04;;;;;;;7.00;4.90;;;;;;;;;;5091535;28;20503;-60
2023/06/16 01:04:31;;;;;;;7.83;4.90;;;;;;;;;;5091055;28;20024;-60
2023/06/16 01:07:05;;;;;;;9.60;5.23;;;;;;;;;;5089830;28;20036;-63
2023/06/16 01:09:32;;;;;;;7.15;4.43;;;;;;;;;;5091460;28;20116;-60
2023/06/16 01:12:03;;;;;;;7.07;4.60;;;;;;;;;;5090441;28;20069;-61
2023/06/16 01:14:40;;;;;;;13.90;5.47;;;;;;;;;;5086416;28;20400;-60
2023/06/16 01:17:08;;;;;;;6.67;4.50;;;;;;;;;;5086042;28;20036;-60
2023/06/16 01:19:37;;;;;;;8.17;4.17;;;;;;;;;;5085918;28;20070;-60
2023/06/16 01:22:10;;;;;;;5.87;4.53;;;;;;;;;;5086055;28;20024;-60
2023/06/16 01:24:37;;;;;;;9.40;5.67;;;;;;;;;;5093740;28;20032;-60
2023/06/16 01:27:05;;;;;;;11.60;5.70;;;;;;;;;;5094794;28;20511;-60
2023/06/16 01:29:36;;;;;;;6.93;4.37;;;;;;;;;;5093983;28;20036;-60
2023/06/16 01:32:04;;;;;;;8.20;5.60;;;;;;;;;;5094741;28;20031;-60
2023/06/16 01:34:32;;;;;;;16.07;6.77;;;;;;;;;;5094388;28;20076;-60
2023/06/16 01:36:59;;;;;;;9.13;5.13;;;;;;;;;;5089710;28;20128;-60
2023/06/16 01:39:26;;;;;;;9.50;5.43;;;;;;;;;;5089899;28;20028;-60
2023/06/16 01:41:53;;;;;;;20.13;7.23;;;;;;;;;;5089794;28;20024;-60
2023/06/16 01:44:20;;;;;;;8.97;5.40;;;;;;;;;;5089803;28;20020;-60
2023/06/16 01:46:47;;;;;;;7.73;4.40;;;;;;;;;;5094387;28;20061;-60
2023/06/16 01:49:14;;;;;;;9.93;5.90;;;;;;;;;;5094714;28;20016;-60
2023/06/16 01:51:41;;;;;;;15.10;6.23;;;;;;;;;;5094342;28;20023;-59
2023/06/16 01:54:08;;;;;;;13.70;5.03;;;;;;;;;;5094436;28;20537;-59
2023/06/16 01:56:35;;;;;;;8.87;5.10;;;;;;;;;;5094438;28;20141;-59
2023/06/16 01:59:02;;;;;;;6.63;5.00;;;;;;;;;;5089187;28;20032;-60
2023/06/16 02:01:34;;;;;;;9.00;5.13;;;;;;;;;;5089389;28;20028;-60
2023/06/16 02:04:10;;;;;;;8.37;4.60;;;;;;;;;;5085834;28;20028;-60
2023/06/16 02:06:42;;;;;;;7.40;5.13;;;;;;;;;;5089153;28;20027;-60
2023/06/16 02:09:11;;;;;;;20.50;6.70;;;;;;;;;;5093414;28;20073;-60
2023/06/16 02:11:38;;;;;;;35.17;6.17;;;;;;;;;;5093484;28;20023;-60
2023/06/16 02:14:05;;;;;;;7.23;5.07;;;;;;;;;;5093836;28;20028;-60
2023/06/16 02:16:44;;;;;;;7.57;5.20;;;;;;;;;;5094101;28;20561;-59
2023/06/16 02:19:15;;;;;;;11.60;6.70;;;;;;;;;;5093796;28;20020;-59
2023/06/16 02:21:42;;;;;;;14.77;5.93;;;;;;;;;;5088136;28;20024;-60
2023/06/16 02:24:09;;;;;;;8.87;5.40;;;;;;;;;;5088948;28;20026;-60
2023/06/16 02:26:37;;;;;;;12.60;8.97;;;;;;;;;;5073622;28;20066;-60
2023/06/16 02:29:04;;;;;;;11.43;7.23;;;;;;;;;;5088936;28;20056;-61
2023/06/16 02:31:31;;;;;;;10.10;6.27;;;;;;;;;;5093058;28;20478;-59
2023/06/16 02:33:58;;;;;;;9.37;6.27;;;;;;;;;;5093838;28;20547;-59
2023/06/16 02:36:25;;;;;;;16.77;6.40;;;;;;;;;;5093625;28;20059;-60
2023/06/16 02:38:52;;;;;;;10.27;5.93;;;;;;;;;;5093410;28;20016;-60
2023/06/16 02:41:19;;;;;;;8.53;5.90;;;;;;;;;;5093266;28;20020;-59
2023/06/16 02:43:45;;;;;;;19.27;5.77;;;;;;;;;;5089468;28;20024;-59
2023/06/16 02:46:12;;;;;;;8.83;6.10;;;;;;;;;;5088696;28;20032;-59
2023/06/16 02:48:39;;;;;;;10.57;5.73;;;;;;;;;;5088505;28;20052;-60
2023/06/16 02:51:06;;;;;;;10.97;5.47;;;;;;;;;;5088148;28;20028;-59
2023/06/16 02:53:33;;;;;;;11.90;6.93;;;;;;;;;;5091399;28;20085;-59
2023/06/16 02:56:00;;;;;;;10.77;6.30;;;;;;;;;;5093130;28;20016;-60
2023/06/16 02:58:27;;;;;;;14.97;5.60;;;;;;;;;;5093319;28;20490;-60
2023/06/16 03:00:54;;;;;;;9.67;6.87;;;;;;;;;;5093138;28;20436;-59
2023/06/16 03:03:21;;;;;;;8.47;5.70;;;;;;;;;;5092932;28;20020;-59
2023/06/16 03:05:48;;;;;;;7.87;6.20;;;;;;;;;;5090130;28;20390;-59
2023/06/16 03:08:15;;;;;;;12.67;6.80;;;;;;;;;;5088157;28;20024;-60
2023/06/16 03:10:42;;;;;;;10.50;6.37;;;;;;;;;;5087921;28;20078;-61
2023/06/16 03:13:09;;;;;;;7.67;5.00;;;;;;;;;;5087877;28;20032;-60
2023/06/16 03:15:36;;;;;;;12.73;8.07;;;;;;;;;;5090081;28;20032;-59
2023/06/16 03:18:03;;;;;;;14.10;6.43;;;;;;;;;;5092924;28;20107;-59
2023/06/16 03:20:30;;;;;;;11.03;6.73;;;;;;;;;;5092584;28;20055;-60
2023/06/16 03:22:56;;;;;;;9.93;6.57;;;;;;;;;;5093276;28;20474;-59
2023/06/16 03:25:23;;;;;;;14.17;6.57;;;;;;;;;;5092773;28;20525;-59
2023/06/16 03:27:50;;;;;;;10.10;5.53;;;;;;;;;;5090623;28;20036;-60
2023/06/16 03:30:17;;;;;;;6.73;5.27;;;;;;;;;;5087566;28;20051;-59
2023/06/16 03:32:44;;;;;;;7.83;5.10;;;;;;;;;;5087784;28;20099;-60
2023/06/16 03:35:12;;;;;;;8.33;6.47;;;;;;;;;;5087643;28;20397;-60
2023/06/16 03:37:39;;;;;;;8.00;5.03;;;;;;;;;;5087906;28;20036;-60
2023/06/16 03:40:07;;;;;;;8.10;5.40;;;;;;;;;;5092667;28;20026;-60
2023/06/16 03:42:34;;;;;;;17.53;8.03;;;;;;;;;;5092402;28;20036;-60
2023/06/16 03:45:01;;;;;;;6.87;4.63;;;;;;;;;;5092675;28;20024;-59
2023/06/16 03:47:28;;;;;;;9.00;5.87;;;;;;;;;;5092010;28;20428;-60
2023/06/16 03:49:55;;;;;;;10.13;6.67;;;;;;;;;;5091334;28;20031;-60
2023/06/16 03:52:22;;;;;;;13.47;7.07;;;;;;;;;;5087448;28;20031;-60
2023/06/16 03:54:49;;;;;;;9.17;6.37;;;;;;;;;;5087517;28;20032;-60
2023/06/16 03:57:17;;;;;;;9.37;6.33;;;;;;;;;;5086941;28;20034;-59
2023/06/16 03:59:44;;;;;;;15.50;6.67;;;;;;;;;;5087364;28;20496;-60
2023/06/16 04:02:11;;;;;;;11.53;7.20;;;;;;;;;;5092340;28;20042;-59
2023/06/16 04:04:38;;;;;;;7.93;5.83;;;;;;;;;;5092312;28;20016;-60
2023/06/16 04:07:09;;;;;;;13.20;5.57;;;;;;;;;;5091958;28;20022;-59
2023/06/16 04:09:35;;;;;;;8.70;5.10;;;;;;;;;;5091882;28;20028;-60
2023/06/16 04:12:02;;;;;;;9.47;5.63;;;;;;;;;;5092121;28;20521;-59
2023/06/16 04:14:29;;;;;;;12.40;7.17;;;;;;;;;;5086864;28;20424;-60
2023/06/16 04:16:56;;;;;;;14.47;7.17;;;;;;;;;;5086976;28;20070;-60
2023/06/16 04:19:26;;;;;;;14.33;7.50;;;;;;;;;;5086459;28;20043;-59
2023/06/16 04:21:53;;;;;;;10.67;6.47;;;;;;;;;;5086877;28;20459;-59
2023/06/16 04:24:19;;;;;;;26.20;5.83;;;;;;;;;;5091736;28;20158;-59
2023/06/16 04:26:48;;;;;;;11.93;6.73;;;;;;;;;;5086341;28;20028;-59
2023/06/16 04:29:15;;;;;;;7.93;6.27;;;;;;;;;;5091753;28;20043;-59
2023/06/16 04:31:42;;;;;;;24.37;7.53;;;;;;;;;;5092029;28;20017;-60
2023/06/16 04:34:12;;;;;;;9.93;6.70;;;;;;;;;;5091652;28;20028;-59
2023/06/16 04:36:44;;;;;;;11.77;7.60;;;;;;;;;;5087117;28;20093;-59
2023/06/16 04:39:14;;;;;;;12.60;8.57;;;;;;;;;;5086210;28;20024;-59
2023/06/16 04:41:42;;;;;;;26.43;7.63;;;;;;;;;;5086608;28;20035;-59
2023/06/16 04:44:09;;;;;;;8.07;6.00;;;;;;;;;;5086492;28;20117;-59
2023/06/16 04:46:38;;;;;;;9.23;6.33;;;;;;;;;;5090224;28;20546;-60
2023/06/16 04:49:05;;;;;;;11.60;6.57;;;;;;;;;;5091521;28;20470;-59
2023/06/16 04:51:33;;;;;;;9.53;6.67;;;;;;;;;;5092192;28;20056;-59
2023/06/16 04:54:00;;;;;;;9.70;6.07;;;;;;;;;;5091802;28;20483;-59
2023/06/16 04:56:27;;;;;;;8.83;6.23;;;;;;;;;;5090637;28;20394;-59
2023/06/16 04:58:53;;;;;;;9.87;6.57;;;;;;;;;;5089156;28;20035;-59
2023/06/16 05:01:20;;;;;;;7.93;5.90;;;;;;;;;;5090721;28;20032;-59
2023/06/16 05:03:47;;;;;;;17.40;8.03;;;;;;;;;;5090416;28;20036;-59
2023/06/16 05:06:14;;;;;;;8.67;5.80;;;;;;;;;;5090398;28;20035;-59
2023/06/16 05:08:41;;;;;;;7.83;5.93;;;;;;;;;;5093301;28;20557;-59
2023/06/16 05:11:08;;;;;;;9.97;5.97;;;;;;;;;;5095247;28;20024;-59
2023/06/16 05:13:35;;;;;;;9.73;7.17;;;;;;;;;;5095197;28;20465;-59
2023/06/16 05:16:02;;;;;;;9.13;5.13;;;;;;;;;;5095242;28;20016;-59
2023/06/16 05:18:29;;;;;;;15.50;6.73;;;;;;;;;;5095477;28;20031;-59
2023/06/16 05:20:56;;;;;;;21.77;7.17;;;;;;;;;;5091953;28;20028;-59
2023/06/16 05:23:22;;;;;;;8.67;5.57;;;;;;;;;;5090353;28;20485;-59
2023/06/16 05:25:49;;;;;;;9.93;7.10;;;;;;;;;;5089846;28;20063;-59
2023/06/16 05:28:16;;;;;;;11.97;7.33;;;;;;;;;;5089792;28;20036;-60
2023/06/16 05:30:43;;;;;;;9.77;5.90;;;;;;;;;;5087971;28;20020;-59
2023/06/16 05:33:10;;;;;;;8.33;5.50;;;;;;;;;;5084653;28;20024;-59
2023/06/16 05:35:37;;;;;;;10.60;7.03;;;;;;;;;;5094691;28;20440;-59
2023/06/16 05:38:03;;;;;;;7.17;5.63;;;;;;;;;;5094889;28;20039;-59
2023/06/16 05:40:30;;;;;;;13.87;7.67;;;;;;;;;;5094900;28;20027;-59
2023/06/16 05:42:57;;;;;;;18.03;6.93;;;;;;;;;;5092952;28;20024;-60
2023/06/16 05:45:24;;;;;;;33.93;8.90;;;;;;;;;;5089360;28;20032;-59
2023/06/16 05:47:53;;;;;;;11.17;6.87;;;;;;;;;;5089619;28;20132;-59
2023/06/16 05:50:22;;;;;;;10.87;7.37;;;;;;;;;;5088969;28;20071;-59
2023/06/16 05:52:50;;;;;;;8.87;7.10;;;;;;;;;;5089935;28;20417;-59
2023/06/16 05:55:20;;;;;;;11.17;6.47;;;;;;;;;;5088139;28;20021;-59
2023/06/16 05:57:49;;;;;;;12.23;6.20;;;;;;;;;;5094517;28;20024;-59
2023/06/16 06:00:20;;;;;;;8.33;6.23;;;;;;;;;;5092892;28;20043;-59
2023/06/16 06:02:50;;;;;;;9.67;7.57;;;;;;;;;;5094387;28;20496;-60
2023/06/16 06:05:24;;;;;;;9.77;6.90;;;;;;;;;;5091758;28;20103;-59
2023/06/16 06:07:57;;;;;;;8.83;6.37;;;;;;;;;;5088970;28;20490;-59
2023/06/16 06:10:29;;;;;;;9.40;6.93;;;;;;;;;;5088760;28;20036;-59
2023/06/16 06:12:59;;;;;;;21.03;7.97;;;;;;;;;;5089148;28;20024;-59
2023/06/16 06:15:32;;;;;;;7.90;6.43;;;;;;;;;;5089671;28;20103;-59
2023/06/16 06:18:02;;;;;;;12.53;8.53;;;;;;;;;;5093995;28;20032;-59
2023/06/16 06:20:36;;;;;;;13.27;8.07;;;;;;;;;;5093898;28;20060;-59
2023/06/16 06:23:07;;;;;;;17.42;8.18;;;;;;;;;;5093750;28;20031;-59
2023/06/16 06:25:40;;;;;;;9.57;6.93;;;;;;;;;;5094331;28;20070;-59
2023/06/16 06:28:16;;;;;;;13.43;6.43;;;;;;;;;;5091588;28;20067;-59
2023/06/16 06:30:50;;;;;;;11.27;6.47;;;;;;;;;;5088498;28;20024;-59
2023/06/16 06:33:21;;;;;;;15.33;8.50;;;;;;;;;;5088684;28;20055;-59
2023/06/16 06:35:52;;;;;;;12.43;8.10;;;;;;;;;;5088876;28;20069;-60
2023/06/16 06:38:25;;;;;;;11.40;7.23;;;;;;;;;;5090182;28;20014;-59
2023/06/16 06:40:56;;;;;;;12.77;8.17;;;;;;;;;;5093246;28;20020;-59
2023/06/16 06:43:27;;;;;;;10.60;7.10;;;;;;;;;;5093171;28;20024;-59
2023/06/16 06:45:57;;;;;;;8.20;5.77;;;;;;;;;;5093794;28;20024;-59
2023/06/16 06:48:28;;;;;;;13.67;8.87;;;;;;;;;;5093385;28;20409;-59
2023/06/16 06:50:59;;;;;;;15.80;7.90;;;;;;;;;;5091015;28;20119;-59
2023/06/16 06:53:36;;;;;;;11.30;7.90;;;;;;;;;;5088395;28;20075;-59
2023/06/16 06:56:10;;;;;;;7.90;5.93;;;;;;;;;;5087657;28;20043;-59
2023/06/16 06:58:41;;;;;;;12.93;7.07;;;;;;;;;;5088408;28;20115;-58
2023/06/16 07:01:17;;;;;;;9.60;7.07;;;;;;;;;;5090791;28;20110;-58
2023/06/16 07:03:47;;;;;;;12.43;7.27;;;;;;;;;;5093120;28;20020;-59
2023/06/16 07:06:17;;;;;;;13.67;8.10;;;;;;;;;;5093300;28;20085;-59
2023/06/16 07:08:51;;;;;;;12.27;8.50;;;;;;;;;;5092802;28;20099;-59
2023/06/16 07:11:21;;;;;;;12.97;9.23;;;;;;;;;;5092681;28;20036;-60
2023/06/16 07:13:53;;;;;;;10.37;6.23;;;;;;;;;;5089836;28;20051;-59
2023/06/16 07:16:23;;;;;;;7.80;5.67;;;;;;;;;;5087709;28;20051;-59
2023/06/16 07:18:57;;;;;;;10.93;8.17;;;;;;;;;;5087747;28;20028;-59
2023/06/16 07:21:27;;;;;;;13.57;9.10;;;;;;;;;;5086646;28;20047;-59
2023/06/16 07:23:58;;;;;;;12.53;7.57;;;;;;;;;;5090390;28;20162;-59
2023/06/16 07:26:34;;;;;;;11.10;7.87;;;;;;;;;;5092916;28;20467;-59
2023/06/16 07:29:07;;;;;;;10.37;6.77;;;;;;;;;;5092577;28;20410;-58
2023/06/16 07:31:38;;;;;;;17.30;8.33;;;;;;;;;;5092786;28;20065;-59
2023/06/16 07:34:09;;;;;;;15.20;7.63;;;;;;;;;;5092135;28;20111;-58
2023/06/16 07:36:41;;;;;;;11.20;8.13;;;;;;;;;;5088575;28;20043;-59
2023/06/16 07:39:11;;;;;;;9.73;7.17;;;;;;;;;;5087733;28;20027;-59
2023/06/16 07:41:44;;;;;;;11.93;7.60;;;;;;;;;;5087391;28;20130;-59
2023/06/16 07:44:18;;;;;;;9.03;7.00;;;;;;;;;;5087590;28;20024;-59
2023/06/16 07:46:49;;;;;;;10.00;7.73;;;;;;;;;;5090318;28;20038;-59
2023/06/16 07:49:20;;;;;;;13.53;7.30;;;;;;;;;;5092445;28;20539;-58
2023/06/16 07:51:50;;;;;;;12.80;7.37;;;;;;;;;;5092249;28;20475;-58
2023/06/16 07:54:28;;;;;;;11.90;7.53;;;;;;;;;;5092164;28;20101;-58
2023/06/16 07:57:01;;;;;;;12.10;8.23;;;;;;;;;;5078908;28;20546;-59
2023/06/16 07:59:31;;;;;;;16.23;8.57;;;;;;;;;;5067776;28;20479;-59
2023/06/16 08:02:07;;;;;;;11.90;8.77;;;;;;;;;;5066653;28;20039;-58
2023/06/16 08:04:38;;;;;;;13.63;8.77;;;;;;;;;;5070819;28;20024;-59
2023/06/16 08:07:08;;;;;;;8.13;7.00;;;;;;;;;;5087128;28;20031;-58
2023/06/16 08:09:39;;;;;;;12.20;8.00;;;;;;;;;;5091270;28;20046;-59
2023/06/16 08:12:13;;;;;;;8.30;6.17;;;;;;;;;;5091827;28;20052;-58
2023/06/16 08:14:46;;;;;;;19.73;7.03;;;;;;;;;;5092502;28;20078;-58
2023/06/16 08:17:17;;;;;;;18.73;8.80;;;;;;;;;;5091701;28;20032;-58
2023/06/16 08:19:54;;;;;;;8.43;6.17;;;;;;;;;;5091990;28;20016;-58
2023/06/16 08:22:25;;;;;;;9.10;5.63;;;;;;;;;;5086768;28;20028;-58
2023/06/16 08:24:56;;;;;;;14.87;7.90;;;;;;;;;;5087011;28;20027;-59
2023/06/16 08:27:27;;;;;;;9.13;5.33;;;;;;;;;;5087130;28;20025;-58
2023/06/16 08:29:54;;;;;;;10.90;5.83;;;;;;;;;;5086610;28;20098;-59
2023/06/16 08:32:22;;;;;;;8.13;5.50;;;;;;;;;;5092516;28;20099;-58
2023/06/16 08:34:48;;;;;;;9.57;6.90;;;;;;;;;;5096115;28;20036;-58
2023/06/16 08:37:15;;;;;;;14.23;9.47;;;;;;;;;;5096071;28;20032;-58
2023/06/16 08:39:43;;;;;;;9.77;7.90;;;;;;;;;;5095851;28;20020;-58
2023/06/16 08:42:11;;;;;;;8.97;7.07;;;;;;;;;;5095801;28;20032;-58
2023/06/16 08:44:39;;;;;;;11.43;9.03;;;;;;;;;;5090845;28;20028;-58
2023/06/16 08:47:08;;;;;;;12.77;8.93;;;;;;;;;;5090864;28;20098;-59
2023/06/16 08:49:34;;;;;;;12.47;7.93;;;;;;;;;;5091033;28;20024;-58
2023/06/16 08:52:03;;;;;;;10.83;6.97;;;;;;;;;;5090545;28;20470;-58
2023/06/16 08:54:35;;;;;;;11.33;7.03;;;;;;;;;;5095102;28;20093;-58
2023/06/16 08:57:04;;;;;;;9.77;7.20;;;;;;;;;;5095978;28;20056;-58
2023/06/16 08:59:32;;;;;;;10.17;8.10;;;;;;;;;;5095342;28;20055;-59
2023/06/16 09:02:01;;;;;;;32.90;8.33;;;;;;;;;;5095674;28;20440;-58
2023/06/16 09:04:33;;;;;;;12.47;7.63;;;;;;;;;;5095671;28;20424;-58
2023/06/16 09:07:00;;;;;;;9.23;6.53;;;;;;;;;;5090811;28;20028;-59
2023/06/16 09:09:27;;;;;;;11.13;7.63;;;;;;;;;;5090368;28;20428;-58
2023/06/16 09:12:04;;;;;;;7.20;6.10;;;;;;;;;;5089848;28;20063;-60
2023/06/16 09:14:33;;;;;;;13.83;8.27;;;;;;;;;;5090275;28;20027;-59
2023/06/16 09:17:01;;;;;;;10.97;8.03;;;;;;;;;;5094112;28;20104;-58
2023/06/16 09:19:28;;;;;;;11.37;7.47;;;;;;;;;;5095064;28;20062;-58
2023/06/16 09:21:56;;;;;;;16.27;7.03;;;;;;;;;;5095295;28;20016;-58
2023/06/16 09:24:29;;;;;;;9.30;6.63;;;;;;;;;;5095283;28;20024;-58
2023/06/16 09:27:00;;;;;;;9.63;6.73;;;;;;;;;;5095144;28;20054;-59
2023/06/16 09:29:28;;;;;;;10.37;7.27;;;;;;;;;;5090402;28;20438;-59
2023/06/16 09:32:06;;;;;;;13.30;6.87;;;;;;;;;;5090134;28;20536;-59
2023/06/16 09:34:33;;;;;;;6.93;5.47;;;;;;;;;;5089755;28;20032;-58
2023/06/16 09:37:00;;;;;;;7.07;5.53;;;;;;;;;;5090147;28;20116;-59
2023/06/16 09:39:27;;;;;;;12.60;8.67;;;;;;;;;;5093565;28;20035;-58
2023/06/16 09:41:54;;;;;;;9.67;7.23;;;;;;;;;;5094823;28;20020;-58
2023/06/16 09:44:27;;;;;;;10.30;7.23;;;;;;;;;;5094343;28;20028;-58
2023/06/16 09:46:54;;;;;;;10.67;7.53;;;;;;;;;;5095009;28;20024;-58
2023/06/16 09:49:22;;;;;;;10.17;7.20;;;;;;;;;;5094826;28;20113;-58
2023/06/16 09:51:53;;;;;;;8.60;7.00;;;;;;;;;;5089810;28;20031;-59
2023/06/16 09:54:20;;;;;;;9.70;6.57;;;;;;;;;;5089535;28;20036;-58
2023/06/16 09:56:47;;;;;;;9.67;6.73;;;;;;;;;;5080723;28;20477;-59
2023/06/16 09:59:15;;;;;;;16.37;9.43;;;;;;;;;;5069092;28;20028;-59
2023/06/16 10:01:45;;;;;;;27.97;8.60;;;;;;;;;;5073127;28;20032;-59
2023/06/16 10:04:14;;;;;;;23.37;9.90;;;;;;;;;;5077183;28;20058;-59
2023/06/16 10:06:56;;;;;;;12.03;8.20;;;;;;;;;;5094479;28;20095;-59
2023/06/16 10:09:27;;;;;;;11.33;8.90;;;;;;;;;;5076141;28;20107;-59
2023/06/16 10:11:56;;;;;;;13.73;7.30;;;;;;;;;;5094497;28;20028;-59
2023/06/16 10:14:27;;;;;;;9.63;7.47;;;;;;;;;;5089412;28;20039;-59
2023/06/16 10:16:56;;;;;;;8.83;6.50;;;;;;;;;;5089000;28;20064;-58
2023/06/16 10:19:24;;;;;;;33.13;7.27;;;;;;;;;;5088919;28;20479;-59
2023/06/16 10:21:51;;;;;;;14.00;9.23;;;;;;;;;;5089175;28;20030;-59
2023/06/16 10:24:18;;;;;;;12.23;8.13;;;;;;;;;;5092343;28;20046;-58
2023/06/16 10:26:45;;;;;;;12.73;8.27;;;;;;;;;;5093914;28;20035;-59
2023/06/16 10:29:16;;;;;;;12.23;8.03;;;;;;;;;;5094013;28;20568;-58
2023/06/16 10:31:46;;;;;;;10.47;6.60;;;;;;;;;;5093871;28;20038;-59
2023/06/16 10:34:20;;;;;;;13.87;8.17;;;;;;;;;;5094097;28;20016;-59
2023/06/16 10:36:47;;;;;;;8.13;6.23;;;;;;;;;;5089273;28;20040;-59
2023/06/16 10:39:15;;;;;;;14.80;8.87;;;;;;;;;;5088313;28;20028;-59
2023/06/16 10:41:57;;;;;;;6.90;5.20;;;;;;;;;;5088544;28;20032;-59
2023/06/16 10:44:33;;;;;;;7.67;6.47;;;;;;;;;;5088539;28;20029;-59
2023/06/16 10:47:12;;;;;;;13.80;7.83;;;;;;;;;;5093151;28;20037;-59
2023/06/16 10:49:52;;;;;;;29.40;8.63;;;;;;;;;;5093500;28;20099;-59
2023/06/16 10:52:19;;;;;;;11.70;8.03;;;;;;;;;;5093214;28;20120;-59
2023/06/16 10:54:51;;;;;;;8.37;6.57;;;;;;;;;;5093562;28;20020;-59
2023/06/16 10:57:18;;;;;;;7.33;5.57;;;;;;;;;;5091719;28;20482;-59
2023/06/16 10:59:54;;;;;;;9.87;6.17;;;;;;;;;;5088162;28;20031;-59
2023/06/16 11:02:23;;;;;;;6.63;5.27;;;;;;;;;;5088354;28;20020;-59
2023/06/16 11:05:07;;;;;;;9.93;7.07;;;;;;;;;;5088174;28;20032;-59
2023/06/16 11:07:47;;;;;;;14.05;9.02;;;;;;;;;;5088750;28;20368;-58
2023/06/16 11:10:18;;;;;;;12.30;8.77;;;;;;;;;;5093322;28;20055;-58
2023/06/16 11:12:48;;;;;;;14.50;9.23;;;;;;;;;;5093058;28;20127;-58
2023/06/16 11:15:15;;;;;;;12.10;9.30;;;;;;;;;;5093161;28;20027;-58
2023/06/16 11:17:45;;;;;;;13.90;8.40;;;;;;;;;;5092737;28;20038;-58
2023/06/16 11:20:13;;;;;;;16.27;7.33;;;;;;;;;;5091203;28;20027;-58
2023/06/16 11:22:39;;;;;;;14.93;9.87;;;;;;;;;;5087865;28;20028;-58
2023/06/16 11:25:07;;;;;;;28.43;11.47;;;;;;;;;;5087920;28;20251;-59
2023/06/16 11:27:34;;;;;;;16.60;8.63;;;;;;;;;;5087328;28;20379;-58
2023/06/16 11:30:03;;;;;;;13.70;10.03;;;;;;;;;;5087866;28;20111;-59
2023/06/16 11:32:34;;;;;;;13.17;8.97;;;;;;;;;;5092686;28;20039;-59
2023/06/16 11:35:01;;;;;;;15.97;9.43;;;;;;;;;;5092481;28;20526;-59
2023/06/16 11:37:51;;;;;;;12.43;8.50;;;;;;;;;;5092788;28;20028;-59
2023/06/16 11:40:22;;;;;;;16.57;10.37;;;;;;;;;;5092613;28;20032;-58
2023/06/16 11:42:56;;;;;;;29.53;10.27;;;;;;;;;;5091058;28;20023;-59
2023/06/16 11:45:23;;;;;;;12.37;8.50;;;;;;;;;;5087297;28;20379;-59
2023/06/16 11:47:50;;;;;;;15.27;8.77;;;;;;;;;;5087523;28;20114;-59
2023/06/16 11:50:20;;;;;;;13.70;8.97;;;;;;;;;;5087147;28;20028;-59
2023/06/16 11:52:46;;;;;;;30.63;9.93;;;;;;;;;;5088338;28;20119;-58
2023/06/16 11:55:13;;;;;;;11.13;8.67;;;;;;;;;;5092237;28;20020;-59
2023/06/16 11:57:40;;;;;;;13.47;7.63;;;;;;;;;;5079237;28;20041;-58
2023/06/16 12:00:08;;;;;;;13.37;8.00;;;;;;;;;;5091081;28;20486;-58
2023/06/16 12:02:35;;;;;;;13.40;9.27;;;;;;;;;;5092198;28;20031;-59
2023/06/16 12:05:03;;;;;;;12.57;8.53;;;;;;;;;;5091173;28;20382;-59
2023/06/16 12:07:31;;;;;;;10.33;7.13;;;;;;;;;;5086643;28;20024;-59
2023/06/16 12:09:58;;;;;;;21.27;10.77;;;;;;;;;;5086868;28;20805;-59
2023/06/16 12:12:25;;;;;;;14.63;10.43;;;;;;;;;;5087044;28;20095;-59
2023/06/16 12:14:52;;;;;;;15.17;9.10;;;;;;;;;;5087197;28;20032;-59
2023/06/16 12:17:19;;;;;;;12.77;8.30;;;;;;;;;;5092072;28;20036;-58
2023/06/16 12:19:46;;;;;;;16.17;9.70;;;;;;;;;;5091842;28;20024;-58
2023/06/16 12:22:13;;;;;;;32.77;14.20;;;;;;;;;;5091815;28;20568;-59
2023/06/16 12:24:40;;;;;;;9.93;6.83;;;;;;;;;;5092036;28;20378;-59
2023/06/16 12:27:07;;;;;;;34.33;9.87;;;;;;;;;;5091625;28;20028;-58
2023/06/16 12:29:36;;;;;;;20.30;9.90;;;;;;;;;;5086273;28;20072;-58
2023/06/16 12:32:04;;;;;;;13.47;9.20;;;;;;;;;;5086893;28;20024;-59
2023/06/16 12:34:38;;;;;;;15.60;9.20;;;;;;;;;;5086749;28;20028;-59
2023/06/16 12:37:10;;;;;;;26.30;7.90;;;;;;;;;;5086712;28;20123;-59
2023/06/16 12:39:38;;;;;;;15.10;9.07;;;;;;;;;;5091947;28;20576;-59
2023/06/16 12:42:05;;;;;;;14.57;9.77;;;;;;;;;;5092018;28;20111;-59
2023/06/16 12:44:47;;;;;;;15.00;11.03;;;;;;;;;;5091411;28;20020;-59
2023/06/16 12:47:15;;;;;;;8.93;7.23;;;;;;;;;;5092053;28;20024;-58
2023/06/16 12:49:42;;;;;;;11.73;7.10;;;;;;;;;;5090957;28;20024;-59
2023/06/16 12:52:09;;;;;;;15.57;8.17;;;;;;;;;;5086364;28;20463;-59
2023/06/16 12:54:36;;;;;;;13.90;9.73;;;;;;;;;;5086387;28;20821;-58
2023/06/16 12:57:03;;;;;;;12.20;9.13;;;;;;;;;;5086604;28;20032;-58
2023/06/16 12:59:30;;;;;;;11.93;8.90;;;;;;;;;;5086266;28;20355;-58
2023/06/16 13:01:57;;;;;;;15.87;8.97;;;;;;;;;;5091670;28;20024;-58
2023/06/16 13:04:24;;;;;;;12.00;8.93;;;;;;;;;;5091616;28;20089;-58
2023/06/16 13:06:51;;;;;;;10.83;8.20;;;;;;;;;;5091741;28;20030;-58
2023/06/16 13:09:21;;;;;;;16.67;8.33;;;;;;;;;;5091752;28;20020;-58
2023/06/16 13:11:49;;;;;;;13.10;7.43;;;;;;;;;;5091561;28;20039;-58
2023/06/16 13:14:18;;;;;;;12.77;8.47;;;;;;;;;;5086517;28;20039;-59
2023/06/16 13:16:45;;;;;;;11.53;7.70;;;;;;;;;;5086225;28;20093;-58
2023/06/16 13:19:12;;;;;;;13.80;8.90;;;;;;;;;;5086907;28;20064;-58
2023/06/16 13:21:39;;;;;;;10.27;7.87;;;;;;;;;;5089996;28;20024;-58
2023/06/16 13:24:06;;;;;;;15.50;9.67;;;;;;;;;;5094374;28;20097;-58
2023/06/16 13:26:33;;;;;;;13.33;9.50;;;;;;;;;;5095392;28;20028;-59
2023/06/16 13:29:00;;;;;;;12.10;9.03;;;;;;;;;;5095092;28;20482;-58
2023/06/16 13:31:27;;;;;;;13.50;9.17;;;;;;;;;;5091855;28;20448;-59
2023/06/16 13:33:53;;;;;;;15.33;10.07;;;;;;;;;;5093843;28;20074;-59
2023/06/16 13:36:21;;;;;;;35.97;9.77;;;;;;;;;;5090589;28;20028;-59
2023/06/16 13:38:51;;;;;;;16.70;10.83;;;;;;;;;;5090069;28;20111;-59
2023/06/16 13:41:19;;;;;;;16.57;10.37;;;;;;;;;;5089889;28;20023;-59
2023/06/16 13:43:47;;;;;;;17.20;10.43;;;;;;;;;;5089761;28;20021;-59
2023/06/16 13:46:17;;;;;;;14.00;10.17;;;;;;;;;;5093678;28;20434;-59
2023/06/16 13:48:45;;;;;;;16.80;9.63;;;;;;;;;;5094346;28;20486;-59
2023/06/16 13:51:12;;;;;;;18.60;10.97;;;;;;;;;;5094631;28;20028;-59
2023/06/16 13:53:39;;;;;;;14.07;9.77;;;;;;;;;;5094598;28;20467;-59
2023/06/16 13:56:06;;;;;;;20.67;11.20;;;;;;;;;;5094710;28;20099;-59
2023/06/16 13:58:32;;;;;;;18.30;10.37;;;;;;;;;;5090982;28;20371;-60
2023/06/16 14:01:00;;;;;;;18.43;8.87;;;;;;;;;;5089352;28;20038;-60
2023/06/16 14:03:27;;;;;;;16.73;11.07;;;;;;;;;;5089481;28;20020;-59
2023/06/16 14:05:54;;;;;;;17.80;9.47;;;;;;;;;;5088626;28;20031;-59
2023/06/16 14:08:21;;;;;;;13.03;8.97;;;;;;;;;;5092014;28;20013;-59
2023/06/16 14:10:50;;;;;;;12.60;8.80;;;;;;;;;;5094547;28;20098;-59
2023/06/16 14:13:17;;;;;;;17.17;8.87;;;;;;;;;;5094256;28;20113;-59
2023/06/16 14:15:48;;;;;;;11.77;7.77;;;;;;;;;;5093721;28;20394;-59
2023/06/16 14:18:15;;;;;;;17.27;9.93;;;;;;;;;;5094134;28;20039;-59
2023/06/16 14:20:42;;;;;;;13.53;9.67;;;;;;;;;;5090757;28;20424;-60
2023/06/16 14:23:09;;;;;;;14.50;10.03;;;;;;;;;;5088890;28;20028;-59
2023/06/16 14:25:37;;;;;;;14.57;10.50;;;;;;;;;;5088853;28;20028;-59
2023/06/16 14:28:04;;;;;;;9.73;7.73;;;;;;;;;;5087090;28;20047;-60
2023/06/16 14:30:33;;;;;;;11.33;8.83;;;;;;;;;;5088052;28;20151;-59
2023/06/16 14:32:59;;;;;;;10.00;7.47;;;;;;;;;;5091434;28;20095;-59
2023/06/16 14:35:27;;;;;;;11.40;8.00;;;;;;;;;;5092222;28;20356;-60
2023/06/16 14:37:53;;;;;;;18.63;9.67;;;;;;;;;;5091467;28;20044;-60
2023/06/16 14:40:20;;;;;;;15.93;9.80;;;;;;;;;;5092142;28;20489;-60
2023/06/16 14:42:47;;;;;;;13.87;9.07;;;;;;;;;;5089785;28;20038;-60